createdAt,value
2022-08-04T00:00:09.972Z,99661.00
2022-08-04T00:02:48.614Z,99653.09
2022-08-04T00:05:29.286Z,99655.81
2022-08-04T00:08:12.340Z,99654.13
2022-08-04T00:10:40.550Z,99649.38
2022-08-04T00:13:09.566Z,99645.28
2022-08-04T00:15:37.524Z,99650.03
2022-08-04T00:18:07.464Z,99647.72
2022-08-04T00:20:41.030Z,99644.34
2022-08-04T00:23:08.372Z,99638.53
2022-08-04T00:25:40.660Z,99638.06
2022-08-04T00:28:07.486Z,99644.47
2022-08-04T00:30:34.128Z,99638.81
2022-08-04T00:33:00.834Z,99630.09
2022-08-04T00:35:29.272Z,99630.28
2022-08-04T00:37:56.303Z,99630.91
2022-08-04T00:40:32.855Z,99634.47
2022-08-04T00:43:10.526Z,99633.91
2022-08-04T00:46:14.937Z,99636.84
2022-08-04T00:49:01.009Z,99633.38
2022-08-04T00:51:42.476Z,99635.53
2022-08-04T00:54:23.974Z,99636.63
2022-08-04T00:57:28.638Z,99636.03
2022-08-04T01:00:11.946Z,99627.19
2022-08-04T01:03:00.889Z,99634.50
2022-08-04T01:06:08.839Z,99626.84
2022-08-04T01:09:00.467Z,99629.41
2022-08-04T01:11:56.887Z,99626.16
2022-08-04T01:15:05.580Z,99628.47
2022-08-04T01:18:06.133Z,99620.81
2022-08-04T01:21:00.385Z,99614.00
2022-08-04T01:23:49.703Z,99615.09
2022-08-04T01:26:43.289Z,99618.03
2022-08-04T01:29:29.305Z,99604.59
2022-08-04T01:32:26.407Z,99603.53
2022-08-04T01:35:47.528Z,99598.81
2022-08-04T01:38:33.648Z,99595.31
2022-08-04T01:41:05.268Z,99605.53
2022-08-04T01:43:34.602Z,99602.63
2022-08-04T01:46:04.786Z,99604.28
2022-08-04T01:48:32.455Z,99594.94
2022-08-04T01:51:06.974Z,99600.34
2022-08-04T01:53:36.725Z,99598.09
2022-08-04T01:56:05.022Z,99596.03
2022-08-04T01:58:33.426Z,99584.00
2022-08-04T02:01:08.763Z,99589.19
2022-08-04T02:04:21.937Z,99583.56
2022-08-04T02:06:35.740Z,99586.28
2022-08-04T02:09:28.584Z,99584.63
2022-08-04T02:12:16.291Z,99581.72
2022-08-04T02:14:55.589Z,99575.47
2022-08-04T02:17:24.575Z,99577.97
2022-08-04T02:20:16.322Z,99578.59
2022-08-04T02:23:09.810Z,99576.09
2022-08-04T02:25:46.030Z,99575.47
2022-08-04T02:28:22.052Z,99572.78
2022-08-04T02:31:03.042Z,99577.56
2022-08-04T02:33:44.730Z,99566.13
2022-08-04T02:36:17.371Z,99564.25
2022-08-04T02:38:49.731Z,99559.69
2022-08-04T02:41:20.061Z,99557.00
2022-08-04T02:43:52.211Z,99555.09
2022-08-04T02:46:21.195Z,99552.22
2022-08-04T02:48:49.262Z,99552.22
2022-08-04T02:51:22.914Z,99546.81
2022-08-04T02:53:55.468Z,99544.09
2022-08-04T02:56:23.208Z,99539.34
2022-08-04T02:58:56.490Z,99537.66
2022-08-04T03:01:24.060Z,99537.47
2022-08-04T03:04:01.343Z,99537.66
2022-08-04T03:06:49.139Z,99532.25
2022-08-04T03:09:28.014Z,99537.03
2022-08-04T03:12:01.667Z,99528.56
2022-08-04T03:15:01.303Z,99529.34
2022-08-04T03:17:55.580Z,99529.34
2022-08-04T03:20:46.751Z,99532.69
2022-08-04T03:23:39.112Z,99532.22
2022-08-04T03:26:17.767Z,99527.69
2022-08-04T03:29:11.756Z,99529.50
2022-08-04T03:31:47.702Z,99526.41
2022-08-04T03:34:33.028Z,99528.66
2022-08-04T03:37:00.106Z,99527.41
2022-08-04T03:39:54.110Z,99517.66
2022-08-04T03:42:31.029Z,99519.28
2022-08-04T03:44:57.556Z,99518.06
2022-08-04T03:47:33.093Z,99521.97
2022-08-04T03:51:34.119Z,99513.25
2022-08-04T03:54:38.228Z,99530.09
2022-08-04T03:57:10.702Z,99515.97
2022-08-04T04:00:06.553Z,99527.78
2022-08-04T04:03:05.351Z,99522.38
2022-08-04T04:06:02.427Z,99523.22
2022-08-04T04:09:01.925Z,99513.44
2022-08-04T04:11:34.306Z,99510.53
2022-08-04T04:14:46.530Z,99509.25
2022-08-04T04:17:25.149Z,99510.13
2022-08-04T04:20:25.149Z,99515.91
2022-08-04T04:23:05.796Z,99514.03
2022-08-04T04:26:01.265Z,99512.38
2022-08-04T04:28:47.157Z,99509.03
2022-08-04T04:31:40.050Z,99504.28
2022-08-04T04:34:21.521Z,99505.94
2022-08-04T04:37:01.822Z,99509.88
2022-08-04T04:39:50.476Z,99508.63
2022-08-04T04:42:23.212Z,99503.41
2022-08-04T04:45:17.266Z,99504.00
2022-08-04T04:48:09.768Z,99508.38
2022-08-04T04:51:05.842Z,99498.56
2022-08-04T04:54:09.723Z,99502.69
2022-08-04T04:57:03.512Z,99504.09
2022-08-04T04:59:34.903Z,99499.34
2022-08-04T05:02:25.187Z,99502.78
2022-08-04T05:05:15.722Z,99500.09
2022-08-04T05:08:44.889Z,99498.06
2022-08-04T05:11:26.100Z,99491.78
2022-08-04T05:14:37.037Z,99494.69
2022-08-04T05:16:47.956Z,99490.34
2022-08-04T05:19:23.914Z,99493.88
2022-08-04T05:21:57.301Z,99497.22
2022-08-04T05:24:26.286Z,99490.41
2022-08-04T05:26:56.979Z,99491.69
2022-08-04T05:29:34.596Z,99489.66
2022-08-04T05:32:08.789Z,99490.50
2022-08-04T05:34:45.335Z,99481.81
2022-08-04T05:37:16.570Z,99482.47
2022-08-04T05:39:47.981Z,99480.44
2022-08-04T05:42:15.605Z,99475.94
2022-08-04T05:44:47.610Z,99479.47
2022-08-04T05:47:17.717Z,99471.19
2022-08-04T05:49:45.751Z,99475.41
2022-08-04T05:52:28.652Z,99477.53
2022-08-04T05:54:56.555Z,99472.56
2022-08-04T05:57:23.903Z,99481.13
2022-08-04T05:59:52.213Z,99474.28
2022-08-04T06:02:20.309Z,99475.53
2022-08-04T06:04:51.438Z,99474.31
2022-08-04T06:07:18.853Z,99472.88
2022-08-04T06:09:45.637Z,99474.34
2022-08-04T06:12:19.288Z,99481.41
2022-08-04T06:14:48.787Z,99474.72
2022-08-04T06:18:35.063Z,99472.84
2022-08-04T06:20:19.694Z,99480.56
2022-08-04T06:22:55.575Z,99479.09
2022-08-04T06:25:29.650Z,99472.22
2022-08-04T06:27:57.125Z,99468.88
2022-08-04T06:30:26.998Z,99464.94
2022-08-04T06:33:04.013Z,99466.59
2022-08-04T06:35:33.245Z,99466.78
2022-08-04T06:38:01.679Z,99468.88
2022-08-04T06:40:33.177Z,99468.84
2022-08-04T06:43:06.726Z,99471.09
2022-08-04T06:45:37.796Z,99468.56
2022-08-04T06:48:06.610Z,99473.97
2022-08-04T06:51:25.592Z,99472.50
2022-08-04T06:53:22.743Z,99473.28
2022-08-04T06:55:50.688Z,99477.88
2022-08-04T06:58:19.562Z,99469.06
2022-08-04T07:00:48.050Z,99468.44
2022-08-04T07:03:17.126Z,99466.13
2022-08-04T07:05:46.254Z,99461.94
2022-08-04T07:08:13.397Z,99462.31
2022-08-04T07:10:40.713Z,99463.75
2022-08-04T07:13:09.559Z,99458.97
2022-08-04T07:15:39.082Z,99459.34
2022-08-04T07:18:05.849Z,99458.91
2022-08-04T07:20:35.812Z,99453.06
2022-08-04T07:23:07.492Z,99462.44
2022-08-04T07:26:00.536Z,99458.81
2022-08-04T07:28:25.013Z,99459.41
2022-08-04T07:30:53.693Z,99465.81
2022-08-04T07:33:21.014Z,99458.69
2022-08-04T07:36:09.765Z,99457.22
2022-08-04T07:38:46.494Z,99462.34
2022-08-04T07:41:43.291Z,99461.91
2022-08-04T07:44:14.677Z,99462.72
2022-08-04T07:46:42.555Z,99459.53
2022-08-04T07:49:10.104Z,99457.22
2022-08-04T07:51:37.684Z,99456.75
2022-08-04T07:54:05.948Z,99454.88
2022-08-04T07:56:36.125Z,99456.31
2022-08-04T07:59:02.835Z,99448.53
2022-08-04T08:01:30.111Z,99454.38
2022-08-04T08:03:58.137Z,99459.59
2022-08-04T08:06:32.243Z,99462.03
2022-08-04T08:09:12.125Z,99457.84
2022-08-04T08:12:36.220Z,99455.31
2022-08-04T08:14:30.399Z,99457.34
2022-08-04T08:16:59.245Z,99462.13
2022-08-04T08:19:25.848Z,99462.25
2022-08-04T08:21:58.636Z,99458.03
2022-08-04T08:24:30.619Z,99464.69
2022-08-04T08:26:58.335Z,99456.06
2022-08-04T08:29:26.627Z,99453.13
2022-08-04T08:31:58.368Z,99452.47
2022-08-04T08:34:29.132Z,99448.22
2022-08-04T08:37:03.822Z,99443.16
2022-08-04T08:40:10.532Z,99446.72
2022-08-04T08:42:49.313Z,99437.19
2022-08-04T08:45:57.991Z,99439.06
2022-08-04T08:48:50.113Z,99433.59
2022-08-04T08:51:47.608Z,99431.16
2022-08-04T08:55:10.468Z,99436.50
2022-08-04T08:58:00.244Z,99432.19
2022-08-04T09:00:46.157Z,99442.00
2022-08-04T09:03:40.218Z,99445.69
2022-08-04T09:06:24.905Z,99438.63
2022-08-04T09:09:14.995Z,99439.97
2022-08-04T09:11:56.165Z,99445.19
2022-08-04T09:14:35.143Z,99439.19
2022-08-04T09:17:05.514Z,99439.69
2022-08-04T09:19:51.604Z,99449.03
2022-08-04T09:22:29.819Z,99444.06
2022-08-04T09:25:05.278Z,99439.34
2022-08-04T09:27:44.547Z,99451.53
2022-08-04T09:30:13.628Z,99446.31
2022-08-04T09:33:11.505Z,99438.28
2022-08-04T09:35:48.906Z,99438.72
2022-08-04T09:38:38.820Z,99440.25
2022-08-04T09:41:48.848Z,99433.13
2022-08-04T09:44:52.610Z,99436.66
2022-08-04T09:47:20.655Z,99437.94
2022-08-04T09:50:19.860Z,99443.84
2022-08-04T09:53:06.523Z,99444.03
2022-08-04T09:56:03.547Z,99448.00
2022-08-04T09:58:44.549Z,99441.16
2022-08-04T10:01:22.640Z,99445.69
2022-08-04T10:03:55.070Z,99438.50
2022-08-04T10:06:40.457Z,99440.59
2022-08-04T10:09:30.074Z,99441.50
2022-08-04T10:12:20.625Z,99439.19
2022-08-04T10:14:47.143Z,99437.22
2022-08-04T10:17:20.525Z,99435.91
2022-08-04T10:20:01.579Z,99440.38
2022-08-04T10:23:02.319Z,99442.94
2022-08-04T10:26:06.935Z,99437.53
2022-08-04T10:28:43.204Z,99432.22
2022-08-04T10:31:15.914Z,99439.97
2022-08-04T10:33:53.254Z,99436.84
2022-08-04T10:36:24.118Z,99434.84
2022-08-04T10:39:01.202Z,99436.09
2022-08-04T10:41:39.875Z,99437.94
2022-08-04T10:44:23.461Z,99428.88
2022-08-04T10:46:56.289Z,99438.34
2022-08-04T10:49:33.042Z,99441.56
2022-08-04T10:52:07.571Z,99434.38
2022-08-04T10:54:55.868Z,99440.53
2022-08-04T10:57:46.391Z,99446.22
2022-08-04T11:00:16.526Z,99446.44
2022-08-04T11:03:05.872Z,99446.63
2022-08-04T11:05:43.863Z,99441.88
2022-08-04T11:08:26.214Z,99447.69
2022-08-04T11:11:06.708Z,99451.13
2022-08-04T11:13:45.043Z,99448.41
2022-08-04T11:16:27.719Z,99451.25
2022-08-04T11:19:15.527Z,99453.38
2022-08-04T11:21:55.447Z,99456.66
2022-08-04T11:24:46.810Z,99455.72
2022-08-04T11:27:25.822Z,99447.56
2022-08-04T11:30:05.435Z,99444.09
2022-08-04T11:32:46.964Z,99446.19
2022-08-04T11:35:27.731Z,99439.25
2022-08-04T11:38:04.991Z,99452.75
2022-08-04T11:40:48.371Z,99457.81
2022-08-04T11:44:02.633Z,99447.75
2022-08-04T11:46:42.262Z,99461.03
2022-08-04T11:49:16.692Z,99464.06
2022-08-04T11:51:45.828Z,99462.06
2022-08-04T11:54:13.778Z,99461.63
2022-08-04T11:56:40.661Z,99464.41
2022-08-04T11:59:10.336Z,99466.56
2022-08-04T12:02:06.529Z,99464.75
2022-08-04T12:04:58.519Z,99472.00
2022-08-04T12:07:32.068Z,99474.75
2022-08-04T12:10:47.417Z,99472.00
2022-08-04T12:13:40.743Z,99477.69
2022-08-04T12:16:30.676Z,99478.59
2022-08-04T12:19:14.418Z,99489.56
2022-08-04T12:21:53.300Z,99481.13
2022-08-04T12:24:28.057Z,99488.28
2022-08-04T12:26:58.395Z,99479.63
2022-08-04T12:29:27.648Z,99481.59
2022-08-04T12:32:00.559Z,99488.06
2022-08-04T12:34:34.205Z,99490.13
2022-08-04T12:37:12.878Z,99483.66
2022-08-04T12:40:27.433Z,99497.03
2022-08-04T12:42:42.172Z,99493.25
2022-08-04T12:45:27.180Z,99484.47
2022-08-04T12:47:58.158Z,99493.59
2022-08-04T12:50:25.599Z,99497.38
2022-08-04T12:53:04.027Z,99500.25
2022-08-04T12:55:34.338Z,99507.97
2022-08-04T12:58:11.690Z,99511.84
2022-08-04T13:00:41.792Z,99508.47
2022-08-04T13:03:12.498Z,99521.50
2022-08-04T13:05:43.396Z,99519.09
2022-08-04T13:08:12.707Z,99526.44
2022-08-04T13:10:46.510Z,99544.69
2022-08-04T13:13:21.974Z,99557.06
2022-08-04T13:16:02.866Z,99560.56
2022-08-04T13:18:33.342Z,99547.34
2022-08-04T13:21:23.167Z,99545.69
2022-08-04T13:24:20.927Z,99547.50
2022-08-04T13:27:09.115Z,99555.50
2022-08-04T13:30:00.043Z,99556.59
2022-08-04T13:32:29.828Z,99548.41
2022-08-04T13:34:59.973Z,99548.22
2022-08-04T13:37:33.511Z,99545.91
2022-08-04T13:40:01.918Z,99543.78
2022-08-04T13:42:29.510Z,99543.25
2022-08-04T13:44:59.731Z,99557.25
2022-08-04T13:47:32.002Z,99545.16
2022-08-04T13:50:18.293Z,99541.78
2022-08-04T13:52:47.086Z,99531.78
2022-08-04T13:55:42.871Z,99539.72
2022-08-04T13:58:13.999Z,99540.84
2022-08-04T14:00:42.534Z,99530.03
2022-08-04T14:03:23.130Z,99530.44
2022-08-04T14:06:27.040Z,99528.22
2022-08-04T14:08:59.185Z,99520.31
2022-08-04T14:12:09.411Z,99512.59
2022-08-04T14:14:29.440Z,99522.56
2022-08-04T14:17:00.711Z,99529.53
2022-08-04T14:19:36.057Z,99532.97
2022-08-04T14:22:03.594Z,99523.38
2022-08-04T14:24:32.497Z,99532.00
2022-08-04T14:27:00.741Z,99517.22
2022-08-04T14:29:37.169Z,99510.34
2022-08-04T14:32:12.568Z,99506.69
2022-08-04T14:34:45.727Z,99506.47
2022-08-04T14:37:20.516Z,99492.69
2022-08-04T14:40:07.907Z,99490.44
2022-08-04T14:42:41.411Z,99487.63
2022-08-04T14:45:08.772Z,99498.63
2022-08-04T14:47:39.631Z,99504.56
2022-08-04T14:50:07.894Z,99503.41
2022-08-04T14:52:37.290Z,99511.88
2022-08-04T14:55:21.214Z,99512.19
2022-08-04T14:58:36.227Z,99503.06
2022-08-04T15:00:37.016Z,99509.09
2022-08-04T15:03:10.629Z,99502.22
2022-08-04T15:06:01.699Z,99504.25
2022-08-04T15:08:31.023Z,99506.66
2022-08-04T15:11:03.239Z,99513.91
2022-08-04T15:13:33.510Z,99511.22
2022-08-04T15:16:06.687Z,99510.44
2022-08-04T15:18:37.031Z,99503.72
2022-08-04T15:21:04.774Z,99514.63
2022-08-04T15:23:38.774Z,99521.53
2022-08-04T15:26:09.957Z,99523.25
2022-08-04T15:28:38.615Z,99531.38
2022-08-04T15:31:10.646Z,99527.09
2022-08-04T15:33:58.316Z,99522.69
2022-08-04T15:36:33.470Z,99520.06
2022-08-04T15:39:11.921Z,99532.53
2022-08-04T15:42:15.079Z,99532.75
2022-08-04T15:44:53.298Z,99540.06
2022-08-04T15:47:26.024Z,99539.81
2022-08-04T15:50:11.034Z,99538.09
2022-08-04T15:53:00.791Z,99535.50
2022-08-04T15:55:44.185Z,99543.84
2022-08-04T15:58:15.683Z,99535.22
2022-08-04T16:00:47.967Z,99539.38
2022-08-04T16:04:00.562Z,99543.69
2022-08-04T16:06:29.774Z,99534.34
2022-08-04T16:09:02.624Z,99535.19
2022-08-04T16:11:30.988Z,99539.19
2022-08-04T16:14:05.479Z,99531.44
2022-08-04T16:16:46.874Z,99534.66
2022-08-04T16:19:41.519Z,99533.91
2022-08-04T16:22:13.148Z,99525.25
2022-08-04T16:24:41.795Z,99529.66
2022-08-04T16:27:13.114Z,99533.91
2022-08-04T16:29:45.684Z,99541.84
2022-08-04T16:32:17.261Z,99543.84
2022-08-04T16:35:00.096Z,99539.94
2022-08-04T16:37:31.246Z,99533.78
2022-08-04T16:40:34.406Z,99543.84
2022-08-04T16:43:13.286Z,99548.06
2022-08-04T16:45:55.962Z,99556.56
2022-08-04T16:48:35.718Z,99558.34
2022-08-04T16:51:08.105Z,99564.22
2022-08-04T16:53:53.578Z,99558.91
2022-08-04T16:56:33.101Z,99565.13
2022-08-04T16:59:10.037Z,99561.69
2022-08-04T17:01:38.305Z,99558.00
2022-08-04T17:04:05.780Z,99560.81
2022-08-04T17:06:38.120Z,99556.25
2022-08-04T17:09:07.446Z,99558.59
2022-08-04T17:11:34.286Z,99548.16
2022-08-04T17:14:05.418Z,99548.44
2022-08-04T17:16:36.161Z,99562.47
2022-08-04T17:19:03.762Z,99561.84
2022-08-04T17:21:32.626Z,99556.66
2022-08-04T17:24:15.756Z,99554.16
2022-08-04T17:26:53.602Z,99553.09
2022-08-04T17:29:21.676Z,99553.09
2022-08-04T17:31:48.482Z,99550.38
2022-08-04T17:34:16.651Z,99554.63
2022-08-04T17:36:47.639Z,99560.72
2022-08-04T17:39:20.225Z,99565.22
2022-08-04T17:41:49.677Z,99551.94
2022-08-04T17:44:17.695Z,99562.03
2022-08-04T17:46:48.459Z,99550.84
2022-08-04T17:49:18.397Z,99559.28
2022-08-04T17:52:06.722Z,99562.97
2022-08-04T17:54:39.578Z,99561.75
2022-08-04T17:57:23.034Z,99560.00
2022-08-04T17:59:59.941Z,99570.50
2022-08-04T18:02:34.087Z,99563.00
2022-08-04T18:05:08.027Z,99560.94
2022-08-04T18:08:35.624Z,99567.44
2022-08-04T18:10:46.306Z,99562.31
2022-08-04T18:13:22.372Z,99567.72
2022-08-04T18:15:51.183Z,99564.47
2022-08-04T18:18:21.636Z,99561.81
2022-08-04T18:20:50.103Z,99557.47
2022-08-04T18:23:17.055Z,99557.50
2022-08-04T18:25:51.059Z,99560.47
2022-08-04T18:28:26.476Z,99557.38
2022-08-04T18:30:55.693Z,99569.13
2022-08-04T18:33:40.148Z,99569.13
2022-08-04T18:36:33.752Z,99578.97
2022-08-04T18:38:59.041Z,99576.06
2022-08-04T18:41:29.119Z,99577.75
2022-08-04T18:44:15.703Z,99583.81
2022-08-04T18:46:55.699Z,99579.06
2022-08-04T18:51:00.922Z,99578.03
2022-08-04T18:52:14.928Z,99583.28
2022-08-04T18:54:42.793Z,99577.03
2022-08-04T18:59:56.606Z,99594.78
2022-08-04T19:02:23.435Z,99593.72
2022-08-04T19:04:53.279Z,99600.81
2022-08-04T19:07:29.246Z,99600.84
2022-08-04T19:12:43.607Z,99620.66
2022-08-04T19:15:12.197Z,99624.19
2022-08-04T19:17:54.149Z,99635.03
2022-08-04T19:20:26.346Z,99632.97
2022-08-04T19:24:10.129Z,99630.25
2022-08-04T19:25:41.538Z,99629.81
2022-08-04T19:28:29.836Z,99631.28
2022-08-04T19:30:58.106Z,99634.38
2022-08-04T19:33:25.350Z,99638.53
2022-08-04T19:35:52.659Z,99637.91
2022-08-04T19:38:20.696Z,99640.81
2022-08-04T19:40:50.510Z,99642.25
2022-08-04T19:43:20.819Z,99648.31
2022-08-04T19:45:51.122Z,99647.91
2022-08-04T19:48:19.997Z,99657.47
2022-08-04T19:50:48.358Z,99663.47
2022-08-04T19:53:19.676Z,99667.81
2022-08-04T19:55:49.468Z,99671.16
2022-08-04T19:58:17.824Z,99669.44
2022-08-04T20:00:50.854Z,99679.25
2022-08-04T20:03:20.424Z,99672.97
2022-08-04T20:05:53.461Z,99683.72
2022-08-04T20:08:23.949Z,99684.50
2022-08-04T20:10:51.953Z,99680.75
2022-08-04T20:13:20.024Z,99681.56
2022-08-04T20:15:57.439Z,99688.38
2022-08-04T20:18:34.886Z,99680.91
2022-08-04T20:21:03.700Z,99675.03
2022-08-04T20:23:48.643Z,99679.16
2022-08-04T20:26:16.866Z,99676.25
2022-08-04T20:28:45.889Z,99673.13
2022-08-04T20:31:18.758Z,99676.81
2022-08-04T20:33:49.153Z,99678.63
2022-08-04T20:36:20.970Z,99678.56
2022-08-04T20:38:51.754Z,99677.66
2022-08-04T20:41:19.643Z,99675.97
2022-08-04T20:43:49.568Z,99678.59
2022-08-04T20:46:28.958Z,99676.66
2022-08-04T20:48:57.288Z,99674.78
2022-08-04T20:51:31.987Z,99679.06
2022-08-04T20:54:01.258Z,99677.16
2022-08-04T20:56:31.013Z,99682.28
2022-08-04T20:58:59.919Z,99677.69
2022-08-04T21:01:29.826Z,99690.91
2022-08-04T21:04:27.237Z,99680.84
2022-08-04T21:06:59.837Z,99680.41
2022-08-04T21:09:38.363Z,99683.69
2022-08-04T21:12:28.514Z,99684.44
2022-08-04T21:17:58.320Z,99702.41
2022-08-04T21:20:29.942Z,99705.69
2022-08-04T21:22:59.787Z,99710.84
2022-08-04T21:25:29.253Z,99706.00
2022-08-04T21:27:58.865Z,99709.06
2022-08-04T21:30:26.651Z,99709.47
2022-08-04T21:32:55.245Z,99708.16
2022-08-04T21:35:37.183Z,99711.22
2022-08-04T21:38:17.616Z,99718.69
2022-08-04T21:40:53.638Z,99718.56
2022-08-04T21:43:27.429Z,99727.50
2022-08-04T21:45:56.069Z,99725.19
2022-08-04T21:48:27.303Z,99739.06
2022-08-04T21:50:55.332Z,99735.69
2022-08-04T21:53:22.441Z,99733.16
2022-08-04T21:56:06.846Z,99734.34
2022-08-04T21:58:36.914Z,99746.16
2022-08-04T22:01:13.342Z,99748.22
2022-08-04T22:03:53.026Z,99752.59
2022-08-04T22:06:28.594Z,99751.75
2022-08-04T22:08:56.357Z,99750.91
2022-08-04T22:11:48.790Z,99752.78
2022-08-04T22:14:17.796Z,99760.84
2022-08-04T22:16:56.629Z,99766.41
2022-08-04T22:19:40.956Z,99770.16
2022-08-04T22:22:13.431Z,99772.84
2022-08-04T22:24:40.298Z,99780.25
2022-08-04T22:27:11.779Z,99780.66
2022-08-04T22:29:39.308Z,99786.69
2022-08-04T22:32:11.198Z,99796.59
2022-08-04T22:34:45.482Z,99802.22
2022-08-04T22:37:19.827Z,99810.28
2022-08-04T22:39:56.237Z,99795.13
2022-08-04T22:42:24.059Z,99792.63
2022-08-04T22:44:50.833Z,99794.47
2022-08-04T22:47:20.188Z,99797.19
2022-08-04T22:49:56.499Z,99802.56
2022-08-04T22:52:36.766Z,99799.19
2022-08-04T22:55:22.147Z,99794.03
2022-08-04T22:58:04.885Z,99803.09
2022-08-04T23:00:35.845Z,99797.91
2022-08-04T23:03:06.698Z,99781.94
2022-08-04T23:05:37.881Z,99774.03
2022-08-04T23:08:05.348Z,99771.53
2022-08-04T23:10:33.114Z,99783.50
2022-08-04T23:13:04.190Z,99789.91
2022-08-04T23:15:33.441Z,99793.78
2022-08-04T23:18:00.658Z,99776.13
2022-08-04T23:20:32.865Z,99782.72
2022-08-04T23:23:12.477Z,99772.34
2022-08-04T23:26:07.993Z,99780.78
2022-08-04T23:28:31.175Z,99767.69
2022-08-04T23:30:57.781Z,99746.50
2022-08-04T23:33:24.786Z,99748.72
2022-08-04T23:36:11.838Z,99750.78
2022-08-04T23:38:39.212Z,99769.13
2022-08-04T23:41:17.242Z,99785.34
2022-08-04T23:43:55.473Z,99777.63
2022-08-04T23:46:23.064Z,99768.41
2022-08-04T23:48:49.730Z,99768.13
2022-08-04T23:51:16.570Z,99737.56
2022-08-04T23:54:01.870Z,99760.16
2022-08-04T23:56:32.112Z,99743.06
2022-08-04T23:59:00.126Z,99720.78
